sensor_id;sensor_type;location;lat;lon;timestamp;pressure;altitude;pressure_sealevel;temperature;humidity
75013;BME280;63567;49.956;20.130;2023-06-10T00:00:06;96755.53;;;16.51;91.58
75013;BME280;63567;49.956;20.130;2023-06-10T00:02:32;96755.31;;;16.53;91.75
75013;BME280;63567;49.956;20.130;2023-06-10T00:04:57;96765.13;;;16.52;91.69
75013;BME280;63567;49.956;20.130;2023-06-10T00:07:23;96762.47;;;16.52;92.11
75013;BME280;63567;49.956;20.130;2023-06-10T00:09:48;96755.06;;;16.54;92.05
75013;BME280;63567;49.956;20.130;2023-06-10T00:12:13;96755.06;;;16.54;91.80
75013;BME280;63567;49.956;20.130;2023-06-10T00:14:40;96752.66;;;16.53;91.72
75013;BME280;63567;49.956;20.130;2023-06-10T00:17:08;96750.81;;;16.53;92.07
75013;BME280;63567;49.956;20.130;2023-06-10T00:19:37;96752.66;;;16.53;91.87
75013;BME280;63567;49.956;20.130;2023-06-10T00:22:04;96750.00;;;16.53;92.00
75013;BME280;63567;49.956;20.130;2023-06-10T00:24:29;96743.28;;;16.50;91.94
75013;BME280;63567;49.956;20.130;2023-06-10T00:26:55;96749.75;;;16.54;91.77
75013;BME280;63567;49.956;20.130;2023-06-10T00:29:20;96746.28;;;16.54;92.06
75013;BME280;63567;49.956;20.130;2023-06-10T00:31:46;96750.22;;;16.51;91.89
75013;BME280;63567;49.956;20.130;2023-06-10T00:34:12;96744.81;;;16.46;91.99
75013;BME280;63567;49.956;20.130;2023-06-10T00:36:37;96752.09;;;16.51;91.93
75013;BME280;63567;49.956;20.130;2023-06-10T00:39:02;96745.38;;;16.48;92.16
75013;BME280;63567;49.956;20.130;2023-06-10T00:41:29;96765.38;;;16.51;92.26
75013;BME280;63567;49.956;20.130;2023-06-10T00:43:55;96751.50;;;16.49;92.14
75013;BME280;63567;49.956;20.130;2023-06-10T00:46:21;96767.19;;;16.50;91.82
75013;BME280;63567;49.956;20.130;2023-06-10T00:48:47;96768.84;;;16.51;92.03
75013;BME280;63567;49.956;20.130;2023-06-10T00:51:12;96764.53;;;16.50;92.01
75013;BME280;63567;49.956;20.130;2023-06-10T00:53:40;96768.84;;;16.51;92.45
75013;BME280;63567;49.956;20.130;2023-06-10T00:56:06;96762.72;;;16.51;91.98
75013;BME280;63567;49.956;20.130;2023-06-10T00:58:31;96770.13;;;16.49;92.21
75013;BME280;63567;49.956;20.130;2023-06-10T01:00:57;96769.88;;;16.50;92.29
75013;BME280;63567;49.956;20.130;2023-06-10T01:03:23;96771.72;;;16.50;92.40
75013;BME280;63567;49.956;20.130;2023-06-10T01:05:54;96759.13;;;16.45;92.62
75013;BME280;63567;49.956;20.130;2023-06-10T01:08:28;96774.38;;;16.50;92.22
75013;BME280;63567;49.956;20.130;2023-06-10T01:11:00;96765.81;;;16.48;92.15
75013;BME280;63567;49.956;20.130;2023-06-10T01:13:26;96773.81;;;16.48;92.42
75013;BME280;63567;49.956;20.130;2023-06-10T01:15:57;96766.66;;;16.48;92.23
75013;BME280;63567;49.956;20.130;2023-06-10T01:18:23;96771.16;;;16.48;92.01
75013;BME280;63567;49.956;20.130;2023-06-10T01:20:49;96772.19;;;16.47;92.26
75013;BME280;63567;49.956;20.130;2023-06-10T01:23:15;96775.66;;;16.47;92.37
75013;BME280;63567;49.956;20.130;2023-06-10T01:25:45;96773.22;;;16.46;92.29
75013;BME280;63567;49.956;20.130;2023-06-10T01:28:40;96777.75;;;16.45;92.54
75013;BME280;63567;49.956;20.130;2023-06-10T01:31:30;96774.84;;;16.47;92.65
75013;BME280;63567;49.956;20.130;2023-06-10T01:34:00;96780.41;;;16.45;92.25
75013;BME280;63567;49.956;20.130;2023-06-10T01:36:26;96773.13;;;16.40;92.09
75013;BME280;63567;49.956;20.130;2023-06-10T01:38:53;96781.44;;;16.44;92.39
75013;BME280;63567;49.956;20.130;2023-06-10T01:41:19;96780.63;;;16.43;92.42
75013;BME280;63567;49.956;20.130;2023-06-10T01:43:46;96776.13;;;16.44;92.17
75013;BME280;63567;49.956;20.130;2023-06-10T01:46:12;96773.47;;;16.44;92.83
75013;BME280;63567;49.956;20.130;2023-06-10T01:48:37;96776.13;;;16.44;92.68
75013;BME280;63567;49.956;20.130;2023-06-10T01:51:03;96777.16;;;16.43;92.46
75013;BME280;63567;49.956;20.130;2023-06-10T01:53:29;96775.56;;;16.42;92.90
75013;BME280;63567;49.956;20.130;2023-06-10T01:55:54;96788.03;;;16.41;92.30
75013;BME280;63567;49.956;20.130;2023-06-10T01:58:19;96783.53;;;16.42;92.43
75013;BME280;63567;49.956;20.130;2023-06-10T02:00:44;96780.88;;;16.42;92.83
75013;BME280;63567;49.956;20.130;2023-06-10T02:03:10;96779.72;;;16.38;92.59
75013;BME280;63567;49.956;20.130;2023-06-10T02:05:35;96777.38;;;16.41;92.63
75013;BME280;63567;49.956;20.130;2023-06-10T02:08:00;96777.63;;;16.40;92.65
75013;BME280;63567;49.956;20.130;2023-06-10T02:10:26;96774.97;;;16.40;92.49
75013;BME280;63567;49.956;20.130;2023-06-10T02:12:51;96772.91;;;16.42;93.11
75013;BME280;63567;49.956;20.130;2023-06-10T02:15:16;96785.34;;;16.41;92.83
75013;BME280;63567;49.956;20.130;2023-06-10T02:17:42;96781.09;;;16.40;93.12
75013;BME280;63567;49.956;20.130;2023-06-10T02:20:07;96780.50;;;16.38;92.77
75013;BME280;63567;49.956;20.130;2023-06-10T02:22:36;96783.41;;;16.37;92.63
75013;BME280;63567;49.956;20.130;2023-06-10T02:25:01;96781.31;;;16.39;92.69
75013;BME280;63567;49.956;20.130;2023-06-10T02:27:26;96774.63;;;16.36;92.54
75013;BME280;63567;49.956;20.130;2023-06-10T02:31:37;96766.41;;;16.26;92.90
75013;BME280;63567;49.956;20.130;2023-06-10T02:34:02;96777.50;;;16.35;92.78
75013;BME280;63567;49.956;20.130;2023-06-10T02:36:28;96774.16;;;16.28;93.06
75013;BME280;63567;49.956;20.130;2023-06-10T02:38:54;96787.13;;;16.36;93.21
75013;BME280;63567;49.956;20.130;2023-06-10T02:41:19;96765.59;;;16.26;93.34
75013;BME280;63567;49.956;20.130;2023-06-10T02:43:46;96770.34;;;16.23;92.87
75013;BME280;63567;49.956;20.130;2023-06-10T02:46:12;96784.09;;;16.32;92.94
75013;BME280;63567;49.956;20.130;2023-06-10T02:48:43;96793.13;;;16.31;92.74
75013;BME280;63567;49.956;20.130;2023-06-10T02:51:10;96773.22;;;16.22;93.18
75013;BME280;63567;49.956;20.130;2023-06-10T02:53:35;96781.19;;;16.22;93.27
75013;BME280;63567;49.956;20.130;2023-06-10T02:56:01;96783.06;;;16.21;93.17
75013;BME280;63567;49.956;20.130;2023-06-10T02:58:26;96795.19;;;16.29;93.45
75013;BME280;63567;49.956;20.130;2023-06-10T03:00:52;96793.34;;;16.30;92.98
75013;BME280;63567;49.956;20.130;2023-06-10T03:03:17;96792.28;;;16.31;92.79
75013;BME280;63567;49.956;20.130;2023-06-10T03:05:43;96794.41;;;16.29;92.69
75013;BME280;63567;49.956;20.130;2023-06-10T03:08:08;96796.00;;;16.30;93.34
75013;BME280;63567;49.956;20.130;2023-06-10T03:10:34;96788.84;;;16.18;93.22
75013;BME280;63567;49.956;20.130;2023-06-10T03:12:59;96784.31;;;16.19;93.44
75013;BME280;63567;49.956;20.130;2023-06-10T03:15:25;96800.75;;;16.28;93.25
75013;BME280;63567;49.956;20.130;2023-06-10T03:17:50;96803.63;;;16.26;93.21
75013;BME280;63567;49.956;20.130;2023-06-10T03:20:15;96790.44;;;16.19;93.46
75013;BME280;63567;49.956;20.130;2023-06-10T03:22:42;96805.03;;;16.29;93.76
75013;BME280;63567;49.956;20.130;2023-06-10T03:25:08;96817.50;;;16.28;93.43
75013;BME280;63567;49.956;20.130;2023-06-10T03:27:39;96808.72;;;16.28;93.83
75013;BME280;63567;49.956;20.130;2023-06-10T03:30:05;96812.44;;;16.27;94.20
75013;BME280;63567;49.956;20.130;2023-06-10T03:32:30;96810.56;;;16.27;93.84
75013;BME280;63567;49.956;20.130;2023-06-10T03:34:55;96808.13;;;16.26;93.86
75013;BME280;63567;49.956;20.130;2023-06-10T03:37:22;96787.31;;;16.11;93.90
75013;BME280;63567;49.956;20.130;2023-06-10T03:39:47;96809.78;;;16.27;93.77
75013;BME280;63567;49.956;20.130;2023-06-10T03:42:12;96814.03;;;16.28;93.70
75013;BME280;63567;49.956;20.130;2023-06-10T03:44:38;96809.50;;;16.28;94.50
75013;BME280;63567;49.956;20.130;2023-06-10T03:47:03;96816.47;;;16.29;94.11
75013;BME280;63567;49.956;20.130;2023-06-10T03:49:28;96821.78;;;16.29;94.24
75013;BME280;63567;49.956;20.130;2023-06-10T03:51:54;96815.66;;;16.29;93.97
75013;BME280;63567;49.956;20.130;2023-06-10T03:54:20;96813.00;;;16.29;94.37
75013;BME280;63567;49.956;20.130;2023-06-10T03:56:45;96814.84;;;16.28;94.25
75013;BME280;63567;49.956;20.130;2023-06-10T03:59:10;96818.53;;;16.27;94.04
75013;BME280;63567;49.956;20.130;2023-06-10T04:01:36;96823.88;;;16.27;94.88
75013;BME280;63567;49.956;20.130;2023-06-10T04:04:02;96820.16;;;16.28;94.41
75013;BME280;63567;49.956;20.130;2023-06-10T04:06:27;96818.75;;;16.26;94.22
75013;BME280;63567;49.956;20.130;2023-06-10T04:08:54;96820.41;;;16.27;94.24
75013;BME280;63567;49.956;20.130;2023-06-10T04:11:21;96827.09;;;16.29;94.55
75013;BME280;63567;49.956;20.130;2023-06-10T04:13:46;96831.63;;;16.29;94.96
75013;BME280;63567;49.956;20.130;2023-06-10T04:16:11;96830.78;;;16.28;94.22
75013;BME280;63567;49.956;20.130;2023-06-10T04:18:37;96827.53;;;16.26;94.86
75013;BME280;63567;49.956;20.130;2023-06-10T04:21:02;96829.97;;;16.28;94.98
75013;BME280;63567;49.956;20.130;2023-06-10T04:23:27;96830.78;;;16.28;94.65
75013;BME280;63567;49.956;20.130;2023-06-10T04:25:53;96826.75;;;16.26;94.63
75013;BME280;63567;49.956;20.130;2023-06-10T04:28:18;96821.31;;;16.20;94.58
75013;BME280;63567;49.956;20.130;2023-06-10T04:30:43;96828.38;;;16.27;94.66
75013;BME280;63567;49.956;20.130;2023-06-10T04:33:09;96822.13;;;16.21;94.73
75013;BME280;63567;49.956;20.130;2023-06-10T04:35:34;96843.06;;;16.29;94.66
75013;BME280;63567;49.956;20.130;2023-06-10T04:37:59;96838.44;;;16.25;94.50
75013;BME280;63567;49.956;20.130;2023-06-10T04:40:26;96842.25;;;16.29;95.20
75013;BME280;63567;49.956;20.130;2023-06-10T04:42:51;96823.97;;;16.20;94.78
75013;BME280;63567;49.956;20.130;2023-06-10T04:45:17;96845.72;;;16.29;95.13
75013;BME280;63567;49.956;20.130;2023-06-10T04:47:42;96843.28;;;16.28;94.57
75013;BME280;63567;49.956;20.130;2023-06-10T04:50:08;96846.97;;;16.27;95.24
75013;BME280;63567;49.956;20.130;2023-06-10T04:52:34;96831.38;;;16.18;94.84
75013;BME280;63567;49.956;20.130;2023-06-10T04:54:59;96849.16;;;16.30;94.43
75013;BME280;63567;49.956;20.130;2023-06-10T04:57:24;96850.78;;;16.31;94.82
75013;BME280;63567;49.956;20.130;2023-06-10T04:59:50;96858.19;;;16.29;94.54
75013;BME280;63567;49.956;20.130;2023-06-10T05:02:15;96858.75;;;16.31;94.53
75013;BME280;63567;49.956;20.130;2023-06-10T05:04:40;96859.34;;;16.33;95.24
75013;BME280;63567;49.956;20.130;2023-06-10T05:07:05;96838.97;;;16.15;94.70
75013;BME280;63567;49.956;20.130;2023-06-10T05:09:31;96862.47;;;16.30;94.41
75013;BME280;63567;49.956;20.130;2023-06-10T05:11:56;96867.56;;;16.31;94.79
75013;BME280;63567;49.956;20.130;2023-06-10T05:14:21;96870.22;;;16.31;95.00
75013;BME280;63567;49.956;20.130;2023-06-10T05:16:47;96870.44;;;16.30;94.98
75013;BME280;63567;49.956;20.130;2023-06-10T05:19:13;96874.47;;;16.32;95.33
75013;BME280;63567;49.956;20.130;2023-06-10T05:21:38;96868.38;;;16.32;94.76
75013;BME280;63567;49.956;20.130;2023-06-10T05:24:04;96875.28;;;16.33;95.14
75013;BME280;63567;49.956;20.130;2023-06-10T05:26:29;96873.69;;;16.32;95.34
75013;BME280;63567;49.956;20.130;2023-06-10T05:28:56;96869.16;;;16.32;96.15
75013;BME280;63567;49.956;20.130;2023-06-10T05:31:22;96871.59;;;16.34;94.90
75013;BME280;63567;49.956;20.130;2023-06-10T05:33:47;96875.28;;;16.33;95.06
75013;BME280;63567;49.956;20.130;2023-06-10T05:36:12;96873.09;;;16.30;95.52
75013;BME280;63567;49.956;20.130;2023-06-10T05:38:37;96874.25;;;16.34;95.27
75013;BME280;63567;49.956;20.130;2023-06-10T05:41:03;96872.88;;;16.31;95.51
75013;BME280;63567;49.956;20.130;2023-06-10T05:43:28;96875.88;;;16.35;94.94
75013;BME280;63567;49.956;20.130;2023-06-10T05:45:54;96881.19;;;16.35;95.10
75013;BME280;63567;49.956;20.130;2023-06-10T05:48:19;96883.84;;;16.35;95.79
75013;BME280;63567;49.956;20.130;2023-06-10T05:50:45;96888.94;;;16.36;95.70
75013;BME280;63567;49.956;20.130;2023-06-10T05:53:13;96892.66;;;16.35;95.07
75013;BME280;63567;49.956;20.130;2023-06-10T05:55:46;96893.47;;;16.36;94.82
75013;BME280;63567;49.956;20.130;2023-06-10T05:58:13;96880.97;;;16.36;95.60
75013;BME280;63567;49.956;20.130;2023-06-10T06:00:39;96881.19;;;16.35;95.36
75013;BME280;63567;49.956;20.130;2023-06-10T06:03:06;96894.97;;;16.43;94.46
75013;BME280;63567;49.956;20.130;2023-06-10T06:05:32;96894.50;;;16.47;95.42
75013;BME280;63567;49.956;20.130;2023-06-10T06:08:01;96875.22;;;16.39;94.58
75013;BME280;63567;49.956;20.130;2023-06-10T06:10:27;96885.03;;;16.51;94.20
75013;BME280;63567;49.956;20.130;2023-06-10T06:12:52;96895.69;;;16.62;94.63
75013;BME280;63567;49.956;20.130;2023-06-10T06:15:17;96898.13;;;16.64;94.01
75013;BME280;63567;49.956;20.130;2023-06-10T06:17:43;96893.50;;;16.71;94.37
75013;BME280;63567;49.956;20.130;2023-06-10T06:20:08;96896.03;;;16.78;94.09
75013;BME280;63567;49.956;20.130;2023-06-10T06:22:33;96881.56;;;16.74;94.42
75013;BME280;63567;49.956;20.130;2023-06-10T06:24:59;96874.53;;;16.79;93.91
75013;BME280;63567;49.956;20.130;2023-06-10T06:27:24;96889.94;;;16.89;94.39
75013;BME280;63567;49.956;20.130;2023-06-10T06:29:49;96886.69;;;16.87;93.73
75013;BME280;63567;49.956;20.130;2023-06-10T06:32:15;96902.88;;;16.97;93.23
75013;BME280;63567;49.956;20.130;2023-06-10T06:34:41;96894.81;;;16.92;93.10
75013;BME280;63567;49.956;20.130;2023-06-10T06:37:06;96907.06;;;17.05;93.13
75013;BME280;63567;49.956;20.130;2023-06-10T06:39:31;96896.28;;;17.00;93.37
75013;BME280;63567;49.956;20.130;2023-06-10T06:41:56;96906.25;;;17.16;93.73
75013;BME280;63567;49.956;20.130;2023-06-10T06:44:22;96913.53;;;17.21;93.80
75013;BME280;63567;49.956;20.130;2023-06-10T06:46:47;96916.63;;;17.30;93.91
75013;BME280;63567;49.956;20.130;2023-06-10T06:49:12;96927.75;;;17.38;93.75
75013;BME280;63567;49.956;20.130;2023-06-10T06:51:38;96927.16;;;17.48;93.84
75013;BME280;63567;49.956;20.130;2023-06-10T06:54:03;96912.56;;;17.51;94.58
75013;BME280;63567;49.956;20.130;2023-06-10T06:56:30;96928.28;;;17.64;93.85
75013;BME280;63567;49.956;20.130;2023-06-10T06:58:55;96926.75;;;17.68;93.63
75013;BME280;63567;49.956;20.130;2023-06-10T07:01:21;96917.47;;;17.71;93.30
75013;BME280;63567;49.956;20.130;2023-06-10T07:03:46;96923.47;;;17.78;92.86
75013;BME280;63567;49.956;20.130;2023-06-10T07:06:12;96932.38;;;17.95;92.78
75013;BME280;63567;49.956;20.130;2023-06-10T07:08:37;96924.38;;;17.95;92.52
75013;BME280;63567;49.956;20.130;2023-06-10T07:11:03;96930.94;;;18.04;92.88
75013;BME280;63567;49.956;20.130;2023-06-10T07:13:28;96944.56;;;18.20;91.73
75013;BME280;63567;49.956;20.130;2023-06-10T07:15:53;96945.22;;;18.27;91.89
75013;BME280;63567;49.956;20.130;2023-06-10T07:18:18;96938.94;;;18.33;91.62
75013;BME280;63567;49.956;20.130;2023-06-10T07:20:44;96944.91;;;18.40;91.08
75013;BME280;63567;49.956;20.130;2023-06-10T07:23:09;96949.53;;;18.45;90.56
75013;BME280;63567;49.956;20.130;2023-06-10T07:25:34;96949.28;;;18.46;90.31
75013;BME280;63567;49.956;20.130;2023-06-10T07:27:59;96949.13;;;18.53;90.08
75013;BME280;63567;49.956;20.130;2023-06-10T07:30:25;96938.84;;;18.45;89.44
75013;BME280;63567;49.956;20.130;2023-06-10T07:32:51;96951.06;;;18.58;89.32
75013;BME280;63567;49.956;20.130;2023-06-10T07:35:16;96955.13;;;18.60;88.79
75013;BME280;63567;49.956;20.130;2023-06-10T07:37:42;96949.88;;;18.65;88.76
75013;BME280;63567;49.956;20.130;2023-06-10T07:40:07;96947.06;;;18.72;88.94
75013;BME280;63567;49.956;20.130;2023-06-10T07:42:34;96949.00;;;18.77;88.89
75013;BME280;63567;49.956;20.130;2023-06-10T07:45:00;96951.03;;;18.86;88.55
75013;BME280;63567;49.956;20.130;2023-06-10T07:47:25;96953.00;;;18.91;88.22
75013;BME280;63567;49.956;20.130;2023-06-10T07:49:51;96956.19;;;18.93;87.92
75013;BME280;63567;49.956;20.130;2023-06-10T07:52:16;96952.84;;;18.98;88.19
75013;BME280;63567;49.956;20.130;2023-06-10T07:54:41;96955.41;;;19.09;87.92
75013;BME280;63567;49.956;20.130;2023-06-10T07:57:07;96950.84;;;19.10;87.72
75013;BME280;63567;49.956;20.130;2023-06-10T07:59:33;96959.75;;;19.16;87.39
75013;BME280;63567;49.956;20.130;2023-06-10T08:01:58;96942.19;;;19.20;87.43
75013;BME280;63567;49.956;20.130;2023-06-10T08:04:23;96959.00;;;19.37;87.54
75013;BME280;63567;49.956;20.130;2023-06-10T08:06:49;96942.41;;;19.35;86.54
75013;BME280;63567;49.956;20.130;2023-06-10T08:09:14;96937.06;;;19.35;86.76
75013;BME280;63567;49.956;20.130;2023-06-10T08:11:39;96964.69;;;19.63;86.99
75013;BME280;63567;49.956;20.130;2023-06-10T08:14:04;96964.25;;;19.71;86.73
75013;BME280;63567;49.956;20.130;2023-06-10T08:16:30;96967.88;;;19.82;86.68
75013;BME280;63567;49.956;20.130;2023-06-10T08:18:55;96960.50;;;19.89;86.48
75013;BME280;63567;49.956;20.130;2023-06-10T08:21:20;96966.50;;;20.01;87.00
75013;BME280;63567;49.956;20.130;2023-06-10T08:23:46;96948.97;;;20.10;86.79
75013;BME280;63567;49.956;20.130;2023-06-10T08:26:11;96955.16;;;20.16;85.99
75013;BME280;63567;49.956;20.130;2023-06-10T08:28:36;96958.72;;;20.22;85.28
75013;BME280;63567;49.956;20.130;2023-06-10T08:31:02;96956.63;;;20.29;85.23
75013;BME280;63567;49.956;20.130;2023-06-10T08:33:27;96960.22;;;20.40;84.78
75013;BME280;63567;49.956;20.130;2023-06-10T08:35:52;96968.59;;;20.48;84.79
75013;BME280;63567;49.956;20.130;2023-06-10T08:38:17;96971.66;;;20.57;83.99
75013;BME280;63567;49.956;20.130;2023-06-10T08:40:43;96966.66;;;20.66;83.61
75013;BME280;63567;49.956;20.130;2023-06-10T08:43:17;96966.75;;;20.76;83.69
75013;BME280;63567;49.956;20.130;2023-06-10T08:45:48;96957.94;;;20.81;83.71
75013;BME280;63567;49.956;20.130;2023-06-10T08:48:14;96966.84;;;20.91;82.24
75013;BME280;63567;49.956;20.130;2023-06-10T08:50:40;96972.00;;;20.98;82.53
75013;BME280;63567;49.956;20.130;2023-06-10T08:53:07;96971.75;;;21.00;82.12
75013;BME280;63567;49.956;20.130;2023-06-10T08:55:35;96971.28;;;21.08;81.58
75013;BME280;63567;49.956;20.130;2023-06-10T08:58:02;96980.72;;;21.21;82.26
75013;BME280;63567;49.956;20.130;2023-06-10T09:00:29;96976.50;;;21.30;81.39
75013;BME280;63567;49.956;20.130;2023-06-10T09:02:55;96952.63;;;21.23;81.01
75013;BME280;63567;49.956;20.130;2023-06-10T09:05:21;96970.78;;;21.53;81.40
75013;BME280;63567;49.956;20.130;2023-06-10T09:07:48;96964.34;;;21.54;80.78
75013;BME280;63567;49.956;20.130;2023-06-10T09:10:13;96967.34;;;21.63;80.95
75013;BME280;63567;49.956;20.130;2023-06-10T09:12:39;96966.00;;;21.66;79.46
75013;BME280;63567;49.956;20.130;2023-06-10T09:15:05;96973.00;;;21.72;79.19
75013;BME280;63567;49.956;20.130;2023-06-10T09:17:31;96962.28;;;21.72;78.75
75013;BME280;63567;49.956;20.130;2023-06-10T09:19:57;96963.88;;;21.68;77.50
75013;BME280;63567;49.956;20.130;2023-06-10T09:22:23;96935.34;;;21.46;77.04
75013;BME280;63567;49.956;20.130;2023-06-10T09:24:49;96968.66;;;21.61;77.08
75013;BME280;63567;49.956;20.130;2023-06-10T09:27:14;96967.59;;;21.62;77.55
75013;BME280;63567;49.956;20.130;2023-06-10T09:29:52;96967.09;;;21.65;77.83
75013;BME280;63567;49.956;20.130;2023-06-10T09:32:18;96968.13;;;21.64;78.29
75013;BME280;63567;49.956;20.130;2023-06-10T09:34:44;96949.59;;;21.57;77.93
75013;BME280;63567;49.956;20.130;2023-06-10T09:37:10;96962.81;;;21.69;77.47
75013;BME280;63567;49.956;20.130;2023-06-10T09:39:37;96965.75;;;21.72;77.70
75013;BME280;63567;49.956;20.130;2023-06-10T09:42:15;96942.72;;;21.71;77.82
75013;BME280;63567;49.956;20.130;2023-06-10T09:44:41;96945.66;;;21.75;77.24
75013;BME280;63567;49.956;20.130;2023-06-10T09:47:06;96954.56;;;21.86;78.15
75013;BME280;63567;49.956;20.130;2023-06-10T09:49:31;96955.09;;;21.88;77.31
75013;BME280;63567;49.956;20.130;2023-06-10T09:51:57;96962.13;;;21.99;77.24
75013;BME280;63567;49.956;20.130;2023-06-10T09:54:22;96950.59;;;22.04;77.10
75013;BME280;63567;49.956;20.130;2023-06-10T09:56:49;96946.59;;;22.06;76.46
75013;BME280;63567;49.956;20.130;2023-06-10T09:59:14;96957.88;;;22.13;76.17
75013;BME280;63567;49.956;20.130;2023-06-10T10:01:40;96956.28;;;22.12;75.97
75013;BME280;63567;49.956;20.130;2023-06-10T10:04:05;96965.66;;;22.10;76.21
75013;BME280;63567;49.956;20.130;2023-06-10T10:06:31;96970.97;;;22.00;76.82
75013;BME280;63567;49.956;20.130;2023-06-10T10:08:56;96970.69;;;21.96;75.34
75013;BME280;63567;49.956;20.130;2023-06-10T10:11:23;96960.47;;;21.88;76.26
75013;BME280;63567;49.956;20.130;2023-06-10T10:13:50;96966.06;;;21.81;76.60
75013;BME280;63567;49.956;20.130;2023-06-10T10:16:30;96964.16;;;21.71;77.18
75013;BME280;63567;49.956;20.130;2023-06-10T10:19:04;96967.34;;;21.63;76.54
75013;BME280;63567;49.956;20.130;2023-06-10T10:21:36;96968.59;;;21.50;77.08
75013;BME280;63567;49.956;20.130;2023-06-10T10:24:07;96954.78;;;21.31;77.02
75013;BME280;63567;49.956;20.130;2023-06-10T10:26:34;96974.88;;;21.29;77.31
75013;BME280;63567;49.956;20.130;2023-06-10T10:31:44;96960.75;;;21.01;77.59
75013;BME280;63567;49.956;20.130;2023-06-10T10:34:13;96957.47;;;20.89;78.07
75013;BME280;63567;49.956;20.130;2023-06-10T10:36:40;96967.91;;;20.90;77.99
75013;BME280;63567;49.956;20.130;2023-06-10T10:39:06;96954.41;;;20.75;78.35
75013;BME280;63567;49.956;20.130;2023-06-10T10:41:32;96968.88;;;20.74;78.62
75013;BME280;63567;49.956;20.130;2023-06-10T10:43:59;96965.28;;;20.63;78.95
75013;BME280;63567;49.956;20.130;2023-06-10T10:46:25;96963.13;;;20.60;79.39
75013;BME280;63567;49.956;20.130;2023-06-10T10:48:53;96966.22;;;20.52;79.67
75013;BME280;63567;49.956;20.130;2023-06-10T10:51:19;96966.22;;;20.52;79.59
75013;BME280;63567;49.956;20.130;2023-06-10T10:54:11;96965.81;;;20.38;79.97
75013;BME280;63567;49.956;20.130;2023-06-10T10:56:37;96952.84;;;20.25;80.65
75013;BME280;63567;49.956;20.130;2023-06-10T10:59:04;96973.97;;;20.21;81.01
75013;BME280;63567;49.956;20.130;2023-06-10T11:01:40;96954.00;;;20.07;81.15
75013;BME280;63567;49.956;20.130;2023-06-10T11:04:07;96972.22;;;20.10;81.57
75013;BME280;63567;49.956;20.130;2023-06-10T11:06:33;96970.28;;;20.05;81.75
75013;BME280;63567;49.956;20.130;2023-06-10T11:08:58;96961.66;;;19.98;82.03
75013;BME280;63567;49.956;20.130;2023-06-10T11:11:26;96977.16;;;19.96;82.15
75013;BME280;63567;49.956;20.130;2023-06-10T11:14:06;96959.97;;;19.92;82.23
75013;BME280;63567;49.956;20.130;2023-06-10T11:16:42;96971.19;;;19.89;82.89
75013;BME280;63567;49.956;20.130;2023-06-10T11:19:08;96962.59;;;19.87;82.48
75013;BME280;63567;49.956;20.130;2023-06-10T11:22:01;96968.19;;;19.85;83.06
75013;BME280;63567;49.956;20.130;2023-06-10T11:24:26;96969.56;;;19.88;82.30
75013;BME280;63567;49.956;20.130;2023-06-10T11:26:52;96973.53;;;19.85;83.60
75013;BME280;63567;49.956;20.130;2023-06-10T11:29:17;96972.97;;;19.83;83.47
75013;BME280;63567;49.956;20.130;2023-06-10T11:31:45;96974.66;;;19.89;82.74
75013;BME280;63567;49.956;20.130;2023-06-10T11:34:10;96969.63;;;19.93;83.17
75013;BME280;63567;49.956;20.130;2023-06-10T11:36:41;96965.38;;;19.97;83.06
75013;BME280;63567;49.956;20.130;2023-06-10T11:39:08;96978.63;;;20.09;82.28
75013;BME280;63567;49.956;20.130;2023-06-10T11:41:35;96961.88;;;20.19;82.76
75013;BME280;63567;49.956;20.130;2023-06-10T11:44:07;96974.66;;;20.39;82.24
75013;BME280;63567;49.956;20.130;2023-06-10T11:46:33;96964.00;;;20.44;82.46
75013;BME280;63567;49.956;20.130;2023-06-10T11:48:59;96975.75;;;20.65;81.48
75013;BME280;63567;49.956;20.130;2023-06-10T11:51:26;96975.22;;;20.68;80.87
75013;BME280;63567;49.956;20.130;2023-06-10T11:53:52;96970.13;;;20.66;80.63
75013;BME280;63567;49.956;20.130;2023-06-10T11:56:25;96981.16;;;20.75;80.29
75013;BME280;63567;49.956;20.130;2023-06-10T11:59:02;96979.13;;;20.82;79.21
75013;BME280;63567;49.956;20.130;2023-06-10T12:01:30;96982.06;;;20.86;79.49
75013;BME280;63567;49.956;20.130;2023-06-10T12:04:04;96978.91;;;20.89;79.10
75013;BME280;63567;49.956;20.130;2023-06-10T12:06:44;96977.03;;;20.89;79.28
75013;BME280;63567;49.956;20.130;2023-06-10T12:09:21;96976.56;;;20.98;78.56
75013;BME280;63567;49.956;20.130;2023-06-10T12:11:51;96977.13;;;21.05;78.09
75013;BME280;63567;49.956;20.130;2023-06-10T12:14:58;96976.63;;;21.08;78.00
75013;BME280;63567;49.956;20.130;2023-06-10T12:20:04;96973.28;;;21.28;77.97
75013;BME280;63567;49.956;20.130;2023-06-10T12:22:41;96972.75;;;21.31;77.76
75013;BME280;63567;49.956;20.130;2023-06-10T12:25:07;96975.19;;;21.32;77.27
75013;BME280;63567;49.956;20.130;2023-06-10T12:27:33;96976.56;;;21.40;77.16
75013;BME280;63567;49.956;20.130;2023-06-10T12:30:03;96973.94;;;21.45;76.80
75013;BME280;63567;49.956;20.130;2023-06-10T12:32:45;96983.38;;;21.53;76.39
75013;BME280;63567;49.956;20.130;2023-06-10T12:35:21;96979.47;;;21.71;76.97
75013;BME280;63567;49.956;20.130;2023-06-10T12:38:04;96972.78;;;21.79;76.60
75013;BME280;63567;49.956;20.130;2023-06-10T12:40:33;96986.53;;;21.98;76.62
75013;BME280;63567;49.956;20.130;2023-06-10T12:43:00;96981.97;;;22.03;76.16
75013;BME280;63567;49.956;20.130;2023-06-10T12:45:27;96982.81;;;22.04;75.26
75013;BME280;63567;49.956;20.130;2023-06-10T12:50:46;96965.13;;;22.13;74.08
75013;BME280;63567;49.956;20.130;2023-06-10T12:53:12;96967.25;;;22.16;74.83
75013;BME280;63567;49.956;20.130;2023-06-10T12:55:38;96964.31;;;22.12;73.35
75013;BME280;63567;49.956;20.130;2023-06-10T12:58:03;96967.88;;;22.23;74.35